createdAt,value
2023-02-16T00:07:10.258Z,90.55
2023-02-16T00:17:13.623Z,75.40
2023-02-16T00:27:19.119Z,88.10
2023-02-16T00:37:22.105Z,89.70
2023-02-16T00:47:33.603Z,86.97
2023-02-16T00:57:40.095Z,86.85
2023-02-16T01:08:02.164Z,85.70
2023-02-16T01:18:05.222Z,87.13
2023-02-16T01:28:19.333Z,86.05
2023-02-16T01:38:24.617Z,90.83
2023-02-16T01:48:30.732Z,85.13
2023-02-16T01:58:41.056Z,83.60
2023-02-16T02:08:55.704Z,81.72
2023-02-16T02:19:01.835Z,88.25
2023-02-16T02:29:19.443Z,92.88
2023-02-16T02:39:34.293Z,91.55
2023-02-16T03:00:08.699Z,91.65
2023-02-16T03:10:30.913Z,95.85
2023-02-16T03:20:52.748Z,100.75
2023-02-16T03:30:58.035Z,92.68
2023-02-16T03:41:01.313Z,99.70
2023-02-16T03:51:06.036Z,98.32
2023-02-16T04:01:09.497Z,96.32
2023-02-16T04:11:31.039Z,98.75
2023-02-16T04:21:34.011Z,98.28
2023-02-16T04:31:38.484Z,92.35
2023-02-16T04:41:41.765Z,96.07
2023-02-16T04:51:46.193Z,95.15
2023-02-16T05:01:49.535Z,95.57
2023-02-16T05:12:11.254Z,91.18
2023-02-16T05:22:14.843Z,92.75
2023-02-16T05:32:19.439Z,88.55
2023-02-16T05:42:22.442Z,88.10
2023-02-16T05:52:27.199Z,91.05
2023-02-16T06:02:30.226Z,87.55
2023-02-16T06:12:34.654Z,86.68
2023-02-16T06:22:37.660Z,91.50
2023-02-16T06:32:42.000Z,89.20
2023-02-16T06:42:45.417Z,71.67
2023-02-16T06:52:49.735Z,81.22
2023-02-16T07:02:53.056Z,85.70
2023-02-16T07:12:57.459Z,86.40
2023-02-16T07:23:00.661Z,85.10
2023-02-16T07:33:06.653Z,83.10
2023-02-16T07:43:10.684Z,76.05
2023-02-16T07:53:15.038Z,81.13
2023-02-16T08:03:18.335Z,53.27
2023-02-16T08:13:23.099Z,66.30
2023-02-16T08:23:26.460Z,68.68
2023-02-16T08:33:31.578Z,76.13
2023-02-16T08:43:34.794Z,66.63
2023-02-16T08:53:39.174Z,65.78
2023-02-16T09:03:44.772Z,49.73
2023-02-16T09:13:49.499Z,69.30
2023-02-16T09:23:54.742Z,62.72
2023-02-16T09:34:02.640Z,73.15
2023-02-16T09:44:18.700Z,66.20
2023-02-16T09:54:40.614Z,74.43
2023-02-16T10:04:50.394Z,72.57
2023-02-16T10:14:59.509Z,73.43
2023-02-16T10:25:06.102Z,76.43
2023-02-16T10:35:17.441Z,77.68
2023-02-16T10:45:27.397Z,73.10
2023-02-16T10:55:31.800Z,68.63
2023-02-16T11:05:38.452Z,75.20
2023-02-16T11:15:42.962Z,82.75
2023-02-16T11:25:56.566Z,82.13
2023-02-16T11:36:05.377Z,77.93
2023-02-16T11:46:16.919Z,76.78
2023-02-16T11:56:28.442Z,69.40
2023-02-16T12:06:55.535Z,61.75
2023-02-16T12:17:14.117Z,61.22
2023-02-16T12:27:22.453Z,59.17
2023-02-16T12:37:35.142Z,57.65
2023-02-16T12:47:48.121Z,53.10
2023-02-16T12:58:01.845Z,57.97
2023-02-16T13:08:15.973Z,50.70
2023-02-16T13:18:23.283Z,44.70
2023-02-16T13:28:43.182Z,43.78
2023-02-16T13:39:16.213Z,48.35
2023-02-16T13:49:33.687Z,46.78
2023-02-16T13:59:55.584Z,43.35
2023-02-16T14:10:00.106Z,38.78
2023-02-16T14:20:07.207Z,38.45
2023-02-16T14:30:22.508Z,38.08
2023-02-16T14:40:48.486Z,39.67
2023-02-16T14:51:18.072Z,35.83
2023-02-16T15:01:25.872Z,44.58
2023-02-16T15:11:34.116Z,34.95
2023-02-16T15:21:37.384Z,37.88
2023-02-16T15:31:41.931Z,35.70
2023-02-16T15:41:48.467Z,39.30
2023-02-16T15:51:55.330Z,37.33
2023-02-16T16:02:01.106Z,41.20
2023-02-16T16:12:08.404Z,38.67
2023-02-16T16:22:30.866Z,44.10
2023-02-16T16:32:35.661Z,46.97
2023-02-16T16:42:40.130Z,62.33
2023-02-16T16:52:47.056Z,58.97
2023-02-16T17:02:50.351Z,51.60
2023-02-16T17:12:57.644Z,57.30
2023-02-16T17:23:04.890Z,55.38
2023-02-16T17:33:10.018Z,53.13
2023-02-16T17:43:14.716Z,51.55
2023-02-16T17:53:21.428Z,49.17
2023-02-16T18:03:25.140Z,49.50
2023-02-16T18:13:30.236Z,49.75
2023-02-16T18:23:33.866Z,57.35
2023-02-16T18:33:38.289Z,49.17
2023-02-16T18:43:41.635Z,50.50
2023-02-16T18:53:46.454Z,56.47
2023-02-16T19:03:49.812Z,55.45
2023-02-16T19:13:54.316Z,53.53
2023-02-16T19:23:57.758Z,63.37
2023-02-16T19:34:02.776Z,63.75
2023-02-16T19:54:10.867Z,75.82
2023-02-16T20:04:14.020Z,69.40
2023-02-16T20:14:18.887Z,86.75
2023-02-16T20:24:22.140Z,84.10
2023-02-16T20:34:28.109Z,93.35
2023-02-16T20:44:31.376Z,84.60
2023-02-16T20:54:35.852Z,84.07
2023-02-16T21:04:38.994Z,77.17
2023-02-16T21:14:43.711Z,77.22
2023-02-16T21:24:46.922Z,73.57
2023-02-16T21:34:51.564Z,69.95
2023-02-16T21:45:12.700Z,60.47
2023-02-16T21:55:34.981Z,59.95
2023-02-16T22:05:38.288Z,47.13
2023-02-16T22:15:44.803Z,41.60
2023-02-16T22:25:47.841Z,37.55
2023-02-16T22:35:52.172Z,32.03
2023-02-16T22:45:55.343Z,30.47
2023-02-16T22:56:00.418Z,36.70
2023-02-16T23:06:12.337Z,29.42
2023-02-16T23:16:18.660Z,30.42
2023-02-16T23:26:23.184Z,27.52
2023-02-16T23:36:27.752Z,27.47
2023-02-16T23:46:30.802Z,27.10
2023-02-16T23:56:35.224Z,20.80
